Time;durP1;ratioP1;P1;durP2;ratioP2;P2;SDS_P1;SDS_P2;PMS_P1;PMS_P2;Temp;Humidity;BMP_temperature;BMP_pressure;BME280_temperature;BME280_humidity;BME280_pressure;Samples;Min_cycle;Max_cycle;Signal;HPM_P1;HPM_P2
2022/03/01 00:01:41;;;;;;;18.90;10.97;;;7.30;99.90;;;;;;4996910;28;20179;-88
2022/03/01 00:04:08;;;;;;;16.73;10.87;;;7.30;99.90;;;;;;4994836;28;20215;-89
2022/03/01 00:06:34;;;;;;;14.53;10.43;;;7.30;99.90;;;;;;4984484;28;20204;-89
2022/03/01 00:09:15;;;;;;;16.93;11.10;;;7.30;99.90;;;;;;4986232;28;20274;-89
2022/03/01 00:12:28;;;;;;;15.37;10.53;;;7.30;99.90;;;;;;4995775;28;20187;-89
2022/03/01 00:36:30;;;;;;;;;;;;;;;;;;;;;
2022/03/01 01:14:14;;;;;;;;;;;;;;;;;;;;;
2022/03/01 03:45:27;;;;;;;15.80;9.17;;;6.80;63.70;;;;;;5013883;28;20296;-91
2022/03/01 04:15:48;;;;;;;;;;;;;;;;;;;;;
2022/03/01 04:18:33;;;;;;;14.83;9.13;;;7.00;1.00;;;;;;4945029;29;20240;-91
2022/03/01 04:21:07;;;;;;;11.83;9.10;;;7.10;1.00;;;;;;5006360;28;20276;-90
2022/03/01 04:38:28;;;;;;;;;;;;;;;;;;;;;
2022/03/01 04:41:39;;;;;;;11.47;7.97;;;7.10;1.00;;;;;;5011466;28;20268;-90
2022/03/01 04:56:03;;;;;;;14.63;8.87;;;7.60;99.90;;;;;;5022536;28;20224;-91
2022/03/01 04:59:17;;;;;;;12.60;8.80;;;7.40;99.90;;;;;;5005566;28;20216;-90
2022/03/01 05:15:48;;;;;;;12.50;8.53;;;7.00;1.00;;;;;;4962011;29;20207;-90
2022/03/01 05:19:13;;;;;;;;;;;;;;;;;;;;;
2022/03/01 05:22:25;;;;;;;17.20;9.53;;;7.00;1.00;;;;;;4965638;28;20267;-90
2022/03/01 05:35:16;;;;;;;13.20;9.27;;;7.20;1.00;;;;;;4965441;28;20801;-91
2022/03/01 05:37:57;;;;;;;13.87;9.10;;;7.10;1.00;;;;;;4967213;28;20212;-90
2022/03/01 05:40:51;;;;;;;22.33;9.63;;;6.90;1.00;;;;;;4946530;29;20279;-91
2022/03/01 05:43:49;;;;;;;14.43;9.23;;;6.90;1.00;;;;;;4968963;28;20180;-91
2022/03/01 05:53:49;;;;;;;12.87;8.13;;;6.80;1.00;;;;;;4923668;29;20167;-90
2022/03/01 06:03:14;;;;;;;13.07;8.73;;;6.80;1.00;;;;;;4922813;29;20221;-91
2022/03/01 06:06:20;;;;;;;11.80;8.87;;;6.90;1.00;;;;;;4928549;28;20189;-89
2022/03/01 06:10:02;;;;;;;;;;;;;;;;;;;;;
2022/03/01 06:12:50;;;;;;;13.67;9.17;;;6.80;1.00;;;;;;4936696;29;20173;-91
2022/03/01 06:25:26;;;;;;;14.53;9.73;;;6.80;1.00;;;;;;4883875;29;20249;-90
2022/03/01 06:32:11;;;;;;;12.53;8.97;;;6.80;1.00;;;;;;4928931;29;20199;-90
2022/03/01 06:34:50;;;;;;;12.77;8.93;;;6.70;1.00;;;;;;4923023;29;20221;-90
2022/03/01 06:37:26;;;;;;;13.10;9.67;;;6.70;1.00;;;;;;4923707;29;20184;-91
2022/03/01 06:40:46;;;;;;;14.33;9.93;;;6.90;1.00;;;;;;4986057;28;20198;-90
2022/03/01 06:50:49;;;;;;;13.47;9.20;;;6.70;1.00;;;;;;4941794;29;20217;-91
2022/03/01 06:53:26;;;;;;;16.40;9.70;;;6.70;1.00;;;;;;4914946;29;20177;-91
2022/03/01 06:56:24;;;;;;;15.53;9.53;;;6.70;1.00;;;;;;4941465;29;20213;-91
2022/03/01 06:58:51;;;;;;;14.03;9.27;;;6.70;1.00;;;;;;4936367;29;20197;-91
2022/03/01 07:01:24;;;;;;;13.87;9.77;;;6.70;1.00;;;;;;4947892;29;20204;-91
2022/03/01 07:04:26;;;;;;;12.97;9.27;;;6.70;1.00;;;;;;4925499;29;20219;-91
2022/03/01 07:07:22;;;;;;;12.27;8.90;;;7.10;1.00;;;;;;4925588;29;20270;-90
2022/03/01 07:10:29;;;;;;;16.07;9.90;;;7.30;99.90;;;;;;4924453;29;20192;-90
2022/03/01 07:13:01;;;;;;;12.87;9.07;;;7.10;1.00;;;;;;4926390;29;20196;-88
2022/03/01 07:15:34;;;;;;;14.83;9.57;;;6.90;1.00;;;;;;4944495;29;20212;-88
2022/03/01 07:18:02;;;;;;;16.00;9.57;;;7.10;1.00;;;;;;5022536;28;20178;-86
2022/03/01 07:20:30;;;;;;;14.13;9.50;;;6.80;1.00;;;;;;5008518;28;20186;-87
2022/03/01 07:22:57;;;;;;;14.97;9.53;;;6.80;1.00;;;;;;5006022;28;20175;-88
2022/03/01 07:25:24;;;;;;;17.50;9.97;;;6.80;1.00;;;;;;5004617;28;20166;-88
2022/03/01 07:27:57;;;;;;;15.80;10.47;;;6.80;1.00;;;;;;5003239;28;20591;-87
2022/03/01 07:30:31;;;;;;;14.50;9.97;;;6.90;1.00;;;;;;5002860;28;20178;-87
2022/03/01 07:33:01;;;;;;;13.97;9.43;;;6.90;1.00;;;;;;5004015;28;20286;-87
2022/03/01 07:35:34;;;;;;;16.60;9.93;;;6.90;1.00;;;;;;5005920;28;20268;-88
2022/03/01 07:38:02;;;;;;;17.53;10.20;;;7.00;1.00;;;;;;5002655;28;20202;-88
2022/03/01 07:40:29;;;;;;;14.60;10.53;;;7.40;1.00;;;;;;5002310;28;20175;-89
2022/03/01 07:42:59;;;;;;;17.03;10.67;;;7.40;99.90;;;;;;5006605;28;20197;-88
2022/03/01 07:45:28;;;;;;;16.33;10.80;;;7.60;99.90;;;;;;5006826;28;20189;-87
2022/03/01 07:47:57;;;;;;;15.63;10.67;;;7.80;99.90;;;;;;5006903;28;20182;-87
2022/03/01 07:50:30;;;;;;;19.00;10.50;;;7.90;99.90;;;;;;5005720;28;20655;-89
2022/03/01 07:53:16;;;;;;;17.13;10.33;;;7.80;99.90;;;;;;5006366;28;20307;-88
2022/03/01 07:55:47;;;;;;;14.37;9.93;;;7.90;99.90;;;;;;5005899;28;20257;-87
2022/03/01 07:58:19;;;;;;;17.33;10.60;;;7.80;99.90;;;;;;5005461;28;20189;-87
2022/03/01 08:00:46;;;;;;;13.67;10.47;;;7.60;99.90;;;;;;5004907;28;20221;-88
2022/03/01 08:03:24;;;;;;;14.50;10.63;;;7.70;99.90;;;;;;5005708;28;20178;-88
2022/03/01 08:05:52;;;;;;;14.90;10.17;;;7.70;99.90;;;;;;5006031;28;20253;-89
2022/03/01 08:08:36;;;;;;;16.13;10.30;;;7.60;99.90;;;;;;5005488;28;20182;-87
2022/03/01 08:11:11;;;;;;;17.07;10.67;;;7.70;99.90;;;;;;5005246;28;20611;-87
2022/03/01 08:13:41;;;;;;;16.83;10.80;;;7.50;99.90;;;;;;5004860;28;20182;-87
2022/03/01 08:16:09;;;;;;;18.90;10.27;;;7.60;99.90;;;;;;5005822;28;20241;-86
2022/03/01 08:18:37;;;;;;;15.23;10.90;;;7.70;99.90;;;;;;5006333;28;20171;-88
2022/03/01 08:21:06;;;;;;;18.63;10.63;;;7.70;99.90;;;;;;5007904;28;20197;-87
2022/03/01 08:23:42;;;;;;;19.13;10.97;;;7.70;99.90;;;;;;5014539;28;20187;-86
2022/03/01 08:26:25;;;;;;;15.50;10.27;;;7.80;99.90;;;;;;5018897;28;20178;-87
2022/03/01 08:28:53;;;;;;;15.87;11.20;;;8.00;99.90;;;;;;5008266;28;20185;-88
2022/03/01 08:31:24;;;;;;;17.57;12.03;;;8.20;99.90;;;;;;5007355;28;20226;-88
2022/03/01 08:34:03;;;;;;;16.07;10.67;;;8.40;99.90;;;;;;5006040;28;20201;-88
2022/03/01 08:36:38;;;;;;;17.13;11.30;;;8.20;99.90;;;;;;5006269;28;20194;-88
2022/03/01 08:39:24;;;;;;;15.77;11.13;;;8.20;99.90;;;;;;4990987;28;20201;-89
2022/03/01 08:42:28;;;;;;;17.63;11.10;;;8.00;99.90;;;;;;5005353;28;20174;-88
2022/03/01 08:45:17;;;;;;;16.67;11.00;;;8.20;99.90;;;;;;5009448;28;20181;-88
2022/03/01 08:47:52;;;;;;;15.47;10.87;;;8.30;99.90;;;;;;5009933;28;20210;-87
2022/03/01 08:50:18;;;;;;;16.47;11.67;;;8.50;99.90;;;;;;5006811;28;20181;-87
2022/03/01 08:53:05;;;;;;;16.20;10.90;;;8.60;99.90;;;;;;5004893;28;20547;-89
2022/03/01 08:55:39;;;;;;;14.83;10.80;;;8.50;99.90;;;;;;5001275;28;20209;-89
2022/03/01 08:58:18;;;;;;;19.03;11.63;;;8.80;99.90;;;;;;5021044;28;20177;-88
2022/03/01 09:00:51;;;;;;;15.40;10.57;;;8.80;76.80;;;;;;5003210;28;20221;-89
2022/03/01 09:03:17;;;;;;;19.57;11.37;;;8.70;99.90;;;;;;5000262;28;20285;-88
2022/03/01 09:05:46;;;;;;;16.37;11.77;;;8.70;99.90;;;;;;5004752;28;20214;-88
2022/03/01 09:08:32;;;;;;;17.40;11.43;;;8.90;94.70;;;;;;5005548;28;20210;-87
2022/03/01 09:10:58;;;;;;;16.77;12.17;;;9.00;88.80;;;;;;5003170;28;20623;-88
2022/03/01 09:13:27;;;;;;;17.63;11.57;;;9.00;88.80;;;;;;5005008;28;20175;-89
2022/03/01 09:15:57;;;;;;;17.67;11.70;;;9.00;99.90;;;;;;5003664;28;20221;-89
2022/03/01 09:18:29;;;;;;;20.33;11.93;;;9.00;89.60;;;;;;4987840;28;20191;-88
2022/03/01 09:21:09;;;;;;;18.70;12.03;;;9.20;35.10;;;;;;4986851;28;20191;-89
2022/03/01 09:23:44;;;;;;;19.20;12.10;;;9.10;57.30;;;;;;5003538;28;20174;-88
2022/03/01 09:26:15;;;;;;;20.67;11.57;;;9.10;99.90;;;;;;5003176;28;20264;-86
2022/03/01 09:28:43;;;;;;;18.50;12.27;;;9.20;99.90;;;;;;5008917;28;20155;-87
2022/03/01 09:31:11;;;;;;;19.23;12.57;;;9.40;86.60;;;;;;5011684;28;20178;-88
2022/03/01 09:33:48;;;;;;;18.10;12.10;;;9.60;46.80;;;;;;5003314;28;20622;-89
2022/03/01 09:36:21;;;;;;;16.13;12.00;;;9.60;40.20;;;;;;5004511;28;20209;-86
2022/03/01 09:38:47;;;;;;;18.47;11.87;;;9.50;33.40;;;;;;5004184;28;20202;-88
2022/03/01 09:41:21;;;;;;;20.40;12.63;;;9.50;25.90;;;;;;5003102;28;20289;-89
2022/03/01 09:43:52;;;;;;;15.33;11.93;;;9.60;21.50;;;;;;5004491;28;20686;-87
2022/03/01 09:46:20;;;;;;;17.47;11.23;;;9.60;13.00;;;;;;5004857;28;20678;-89
2022/03/01 09:48:46;;;;;;;17.83;11.20;;;9.70;20.50;;;;;;5003467;28;20207;-88
2022/03/01 09:51:24;;;;;;;19.70;12.27;;;9.60;5.80;;;;;;5003903;28;20187;-87
2022/03/01 09:53:52;;;;;;;18.87;12.33;;;9.50;38.90;;;;;;4987626;28;20186;-88
2022/03/01 09:56:19;;;;;;;20.73;11.83;;;9.70;35.60;;;;;;5004825;28;20212;-88
2022/03/01 09:58:49;;;;;;;21.77;12.37;;;9.80;23.50;;;;;;5003854;28;20182;-88
2022/03/01 10:01:18;;;;;;;22.83;12.63;;;9.80;41.90;;;;;;5003201;28;20650;-88
2022/03/01 10:03:51;;;;;;;19.40;12.77;;;9.80;54.30;;;;;;4991027;28;20292;-89
2022/03/01 10:06:24;;;;;;;22.47;12.57;;;9.90;28.50;;;;;;5005267;28;20201;-88
2022/03/01 10:08:57;;;;;;;24.33;12.07;;;10.10;11.70;;;;;;5003632;28;20204;-86
2022/03/01 10:11:35;;;;;;;18.47;12.03;;;10.00;4.40;;;;;;5021042;28;20182;-86
2022/03/01 10:14:01;;;;;;;23.20;12.80;;;10.10;1.00;;;;;;5002549;28;20174;-87
2022/03/01 10:16:40;;;;;;;19.67;12.63;;;10.00;8.50;;;;;;5003597;28;20296;-88
2022/03/01 10:19:17;;;;;;;21.53;12.60;;;9.80;1.00;;;;;;5003131;28;20277;-89
2022/03/01 10:21:49;;;;;;;23.27;12.07;;;10.00;1.00;;;;;;5003399;28;20197;-88
2022/03/01 10:24:20;;;;;;;18.20;11.97;;;10.10;1.00;;;;;;5005883;28;20560;-88
2022/03/01 10:26:49;;;;;;;19.57;12.37;;;10.30;1.00;;;;;;5003647;28;20190;-87
2022/03/01 10:29:33;;;;;;;24.70;12.90;;;10.40;1.00;;;;;;5002695;28;20582;-88
2022/03/01 10:32:16;;;;;;;20.97;13.20;;;10.40;1.00;;;;;;4987376;28;20234;-87
2022/03/01 10:35:07;;;;;;;20.70;12.00;;;10.60;1.00;;;;;;5001631;28;20209;-88
2022/03/01 10:37:42;;;;;;;18.33;13.23;;;10.60;1.00;;;;;;4995567;28;20214;-89
2022/03/01 10:40:21;;;;;;;21.97;13.53;;;10.60;1.00;;;;;;5003562;28;20178;-89
2022/03/01 10:46:09;;;;;;;27.57;13.03;;;10.60;1.00;;;;;;5024189;28;20201;-88
2022/03/01 10:52:03;;;;;;;20.10;11.80;;;10.50;1.00;;;;;;5022913;28;20257;-87
2022/03/01 10:54:54;;;;;;;19.87;12.50;;;10.30;1.00;;;;;;5005420;28;20194;-88
2022/03/01 10:57:23;;;;;;;22.97;13.07;;;10.30;1.00;;;;;;5007091;28;20202;-87
2022/03/01 10:59:49;;;;;;;24.70;12.53;;;10.40;1.00;;;;;;5022781;28;20194;-89
2022/03/01 11:02:18;;;;;;;25.50;12.50;;;10.50;1.00;;;;;;5016994;28;20186;-90
2022/03/01 11:04:46;;;;;;;25.40;12.37;;;10.50;1.00;;;;;;5013433;28;20194;-88
2022/03/01 11:07:22;;;;;;;19.40;13.37;;;10.70;1.00;;;;;;5009882;28;20175;-88
2022/03/01 11:09:55;;;;;;;16.97;11.97;;;10.70;39.30;;;;;;5032396;28;20162;-88
2022/03/01 11:12:26;;;;;;;21.90;13.53;;;10.90;99.90;;;;;;5011279;28;20183;-89
2022/03/01 11:15:32;;;;;;;19.87;12.70;;;10.90;27.80;;;;;;4992862;28;20217;-89
2022/03/01 11:18:10;;;;;;;16.27;12.10;;;11.00;1.00;;;;;;4988256;28;20266;-88
2022/03/01 11:20:44;;;;;;;18.43;11.93;;;10.90;1.00;;;;;;4982263;28;20179;-88
2022/03/01 11:23:16;;;;;;;21.10;12.90;;;11.00;5.00;;;;;;4982480;28;20186;-87
2022/03/01 11:25:46;;;;;;;18.07;12.63;;;10.90;1.00;;;;;;4982908;28;20189;-89
2022/03/01 11:28:18;;;;;;;20.83;13.37;;;11.00;1.00;;;;;;4982744;28;20190;-89
2022/03/01 11:30:51;;;;;;;18.23;13.17;;;11.10;18.80;;;;;;4983841;28;20182;-89
2022/03/01 11:33:27;;;;;;;17.30;12.70;;;11.20;1.00;;;;;;4969041;28;20194;-90
2022/03/01 11:36:04;;;;;;;20.77;13.57;;;11.30;1.00;;;;;;4982822;28;20217;-89
2022/03/01 11:38:43;;;;;;;18.13;13.53;;;11.30;1.00;;;;;;4982673;28;20690;-88
2022/03/01 11:41:19;;;;;;;22.33;13.87;;;11.50;1.00;;;;;;4984194;28;20190;-88
2022/03/01 11:43:54;;;;;;;19.60;13.17;;;11.60;4.90;;;;;;4989630;28;20190;-88
2022/03/01 11:46:43;;;;;;;19.30;13.97;;;11.50;1.00;;;;;;4999445;28;20218;-87
2022/03/01 11:49:15;;;;;;;21.37;13.83;;;11.60;7.40;;;;;;4985167;28;20182;-88
2022/03/01 11:52:19;;;;;;;17.40;13.77;;;11.70;92.50;;;;;;4968739;28;20199;-89
2022/03/01 11:54:54;;;;;;;17.23;12.47;;;11.80;97.90;;;;;;5002719;28;20206;-88
2022/03/01 11:57:29;;;;;;;17.63;13.00;;;12.00;99.90;;;;;;4954143;28;20194;-89
2022/03/01 11:59:59;;;;;;;15.90;12.43;;;11.80;99.90;;;;;;5005776;28;20198;-88
2022/03/01 12:02:26;;;;;;;21.17;15.13;;;11.90;97.30;;;;;;5010804;28;20675;-85
2022/03/01 12:04:56;;;;;;;21.63;13.00;;;11.80;26.30;;;;;;4996284;28;20202;-88
2022/03/01 12:07:30;;;;;;;16.87;12.70;;;11.80;82.30;;;;;;4977319;28;20187;-87
2022/03/01 12:10:01;;;;;;;18.73;13.00;;;11.60;99.90;;;;;;4993627;28;20182;-88
2022/03/01 12:12:47;;;;;;;18.00;11.33;;;11.70;4.80;;;;;;4987684;28;20218;-90
2022/03/01 12:15:16;;;;;;;19.40;12.27;;;11.60;1.00;;;;;;4987103;28;20211;-89
2022/03/01 12:17:50;;;;;;;19.30;12.63;;;11.70;1.00;;;;;;4987304;28;20175;-89
2022/03/01 12:20:19;;;;;;;18.93;12.80;;;11.90;1.00;;;;;;4987723;28;20183;-87
2022/03/01 12:23:03;;;;;;;15.30;11.97;;;11.80;1.00;;;;;;4987291;28;20219;-88
2022/03/01 12:25:44;;;;;;;18.73;11.83;;;11.80;1.00;;;;;;4992934;28;20262;-88
2022/03/01 12:28:16;;;;;;;18.53;11.57;;;11.80;1.00;;;;;;4991199;28;20183;-88
2022/03/01 12:31:34;;;;;;;16.57;11.50;;;12.10;1.00;;;;;;4990989;28;20195;-88
2022/03/01 12:34:04;;;;;;;18.00;12.20;;;12.20;1.00;;;;;;4920105;29;20289;-88
2022/03/01 12:36:35;;;;;;;17.77;12.03;;;12.40;1.00;;;;;;4939761;29;20197;-89
2022/03/01 12:39:13;;;;;;;16.83;11.97;;;12.60;1.00;;;;;;4940949;29;20206;-88
2022/03/01 12:41:42;;;;;;;14.10;11.23;;;12.70;1.00;;;;;;4965320;28;20182;-88
2022/03/01 12:44:13;;;;;;;17.53;13.03;;;13.00;1.00;;;;;;5002259;28;20211;-88
2022/03/01 12:46:41;;;;;;;16.30;12.37;;;12.90;1.00;;;;;;4998560;28;20192;-88
2022/03/01 12:49:09;;;;;;;19.23;14.00;;;13.10;1.00;;;;;;4996140;28;20229;-87
2022/03/01 12:51:35;;;;;;;15.67;12.57;;;13.40;1.00;;;;;;4992562;28;20260;-88
2022/03/01 12:54:11;;;;;;;17.93;13.07;;;13.40;1.00;;;;;;5002421;28;20168;-88
2022/03/01 12:56:40;;;;;;;17.53;12.37;;;13.20;1.00;;;;;;4998739;28;20201;-87
2022/03/01 12:59:27;;;;;;;;;;;;;;;;;;;;;
2022/03/01 13:02:05;;;;;;;20.30;13.73;;;13.00;1.00;;;;;;5013942;28;20223;-88
2022/03/01 13:05:20;;;;;;;16.30;12.60;;;12.80;1.00;;;;;;4986108;28;20491;-89
2022/03/01 13:07:49;;;;;;;22.13;13.57;;;12.60;1.00;;;;;;4975959;28;20186;-89
2022/03/01 13:10:26;;;;;;;18.83;13.90;;;12.40;1.00;;;;;;4986701;28;20194;-90
2022/03/01 13:12:52;;;;;;;21.80;13.33;;;12.50;1.00;;;;;;4985263;28;20222;-90
2022/03/01 13:15:25;;;;;;;22.47;14.33;;;12.70;1.00;;;;;;4984977;28;20420;-87
2022/03/01 13:17:57;;;;;;;21.97;13.53;;;12.50;1.00;;;;;;4986097;28;20230;-89
2022/03/01 13:20:25;;;;;;;22.13;14.60;;;12.40;1.00;;;;;;4985753;28;20179;-89
2022/03/01 13:23:08;;;;;;;22.10;12.93;;;12.50;1.00;;;;;;4985136;28;20183;-88
2022/03/01 13:25:37;;;;;;;19.17;13.23;;;12.60;1.00;;;;;;4970649;28;20230;-88
2022/03/01 13:28:06;;;;;;;21.87;13.83;;;12.60;1.00;;;;;;4988979;28;20171;-88
2022/03/01 13:30:34;;;;;;;21.27;13.77;;;12.70;1.00;;;;;;4980382;28;20190;-89
2022/03/01 13:33:08;;;;;;;17.60;13.40;;;13.00;1.00;;;;;;4997735;28;20174;-89
2022/03/01 13:35:34;;;;;;;21.83;13.27;;;12.90;1.00;;;;;;4998105;28;20214;-87
2022/03/01 13:38:10;;;;;;;20.50;13.07;;;12.70;1.00;;;;;;4993016;28;20198;-87
2022/03/01 13:40:43;;;;;;;19.10;13.87;;;12.70;1.00;;;;;;5006552;28;20265;-87
2022/03/01 13:43:27;;;;;;;22.97;13.67;;;12.60;1.00;;;;;;4986988;28;20187;-88
2022/03/01 13:46:04;;;;;;;21.63;13.07;;;12.60;1.00;;;;;;4985975;28;20186;-87
2022/03/01 13:48:32;;;;;;;18.03;13.30;;;12.30;1.00;;;;;;4984932;28;20186;-88
2022/03/01 13:51:33;;;;;;;22.63;14.67;;;12.40;1.00;;;;;;4984148;28;20248;-88
2022/03/01 13:54:09;;;;;;;24.57;13.90;;;12.60;1.00;;;;;;5002419;28;20187;-88
2022/03/01 13:56:39;;;;;;;23.03;14.07;;;12.50;1.00;;;;;;5002870;28;20569;-88
2022/03/01 13:59:05;;;;;;;21.20;14.27;;;12.80;1.00;;;;;;4987113;28;20179;-88
2022/03/01 14:01:34;;;;;;;22.50;14.20;;;12.40;1.00;;;;;;4986466;28;20213;-88
2022/03/01 14:04:06;;;;;;;24.00;14.50;;;12.50;1.00;;;;;;4987276;28;20233;-88
2022/03/01 14:06:37;;;;;;;20.00;13.53;;;12.50;1.00;;;;;;4970257;28;20217;-88
2022/03/01 14:09:04;;;;;;;20.33;13.90;;;12.50;1.00;;;;;;4986625;28;20181;-86
2022/03/01 14:11:29;;;;;;;19.17;14.10;;;12.60;1.00;;;;;;4987000;28;20179;-88
2022/03/01 14:13:58;;;;;;;21.10;14.40;;;12.70;1.00;;;;;;4988434;28;20262;-87
2022/03/01 14:16:28;;;;;;;22.80;14.57;;;12.70;1.00;;;;;;4985817;28;20218;-88
2022/03/01 14:19:06;;;;;;;18.67;13.50;;;12.80;1.00;;;;;;4983846;28;20175;-88
2022/03/01 14:21:45;;;;;;;80.30;19.70;;;12.70;1.00;;;;;;4999020;28;20182;-88
2022/03/01 14:24:17;;;;;;;73.50;21.30;;;12.80;1.00;;;;;;4983621;28;20250;-87
2022/03/01 14:26:42;;;;;;;25.37;14.33;;;12.80;1.00;;;;;;4982074;28;20179;-86
2022/03/01 14:29:14;;;;;;;83.33;21.67;;;12.90;1.00;;;;;;4982714;28;20205;-86
2022/03/01 14:31:42;;;;;;;22.63;14.17;;;12.90;1.00;;;;;;4982986;28;20199;-87
2022/03/01 14:34:15;;;;;;;30.60;15.80;;;13.00;1.00;;;;;;5000583;28;20173;-87
2022/03/01 14:36:44;;;;;;;25.53;15.83;;;13.00;1.00;;;;;;4985911;28;20197;-88
2022/03/01 14:39:15;;;;;;;26.47;15.20;;;13.10;1.00;;;;;;4987196;28;20203;-87
2022/03/01 14:41:42;;;;;;;21.97;14.43;;;13.20;1.00;;;;;;5003836;28;20176;-88
2022/03/01 14:44:12;;;;;;;23.27;14.27;;;13.10;1.00;;;;;;4982825;28;20190;-87
2022/03/01 14:46:40;;;;;;;25.47;14.77;;;13.20;1.00;;;;;;4982163;28;20187;-89
2022/03/01 14:50:01;;;;;;;25.33;15.27;;;13.30;1.00;;;;;;4983592;28;20672;-88
2022/03/01 14:52:27;;;;;;;31.00;15.37;;;13.50;1.00;;;;;;4983771;28;20179;-88
2022/03/01 14:54:52;;;;;;;23.33;14.67;;;13.60;1.00;;;;;;4982847;28;20212;-88
2022/03/01 14:57:18;;;;;;;18.63;13.30;;;13.70;1.00;;;;;;4983370;28;20221;-88
2022/03/01 14:59:47;;;;;;;22.63;14.33;;;13.80;1.00;;;;;;4982528;28;20191;-88
2022/03/01 15:02:16;;;;;;;21.13;13.97;;;13.70;1.00;;;;;;4983600;28;20200;-88
2022/03/01 15:04:50;;;;;;;19.80;14.67;;;13.80;1.00;;;;;;4984879;28;20184;-87
2022/03/01 15:07:19;;;;;;;21.30;14.53;;;13.70;1.00;;;;;;4984332;28;20262;-89
2022/03/01 15:09:48;;;;;;;21.60;14.37;;;13.50;1.00;;;;;;4986478;28;20184;-88
2022/03/01 15:12:31;;;;;;;21.47;14.30;;;13.50;1.00;;;;;;4990227;28;20277;-89
2022/03/01 15:15:06;;;;;;;17.63;13.60;;;13.50;1.00;;;;;;4986142;28;21009;-89
2022/03/01 15:17:35;;;;;;;19.37;12.73;;;13.60;1.00;;;;;;4986480;28;20173;-89
2022/03/01 15:20:09;;;;;;;20.93;14.17;;;13.60;1.00;;;;;;4993785;28;20177;-88
2022/03/01 15:22:34;;;;;;;18.97;13.50;;;13.80;1.00;;;;;;4983798;28;20267;-89
2022/03/01 15:25:03;;;;;;;20.07;13.33;;;13.80;1.00;;;;;;4983385;28;20243;-88
2022/03/01 15:27:33;;;;;;;19.07;13.83;;;13.70;1.00;;;;;;4983514;28;20190;-87
2022/03/01 15:29:58;;;;;;;20.03;13.83;;;13.80;1.00;;;;;;4983619;28;20178;-88
2022/03/01 15:32:27;;;;;;;18.47;13.13;;;13.90;1.00;;;;;;4982564;28;20195;-87
2022/03/01 15:34:54;;;;;;;18.83;13.57;;;14.00;1.00;;;;;;4982768;28;20228;-88
2022/03/01 15:37:21;;;;;;;20.53;14.17;;;14.30;1.00;;;;;;4985809;28;20190;-88
2022/03/01 15:39:50;;;;;;;20.33;13.30;;;14.40;1.00;;;;;;4984117;28;20248;-87
2022/03/01 15:42:29;;;;;;;18.77;13.70;;;14.40;1.00;;;;;;4987722;28;20197;-90
2022/03/01 15:44:55;;;;;;;20.30;13.97;;;14.40;1.00;;;;;;4989417;28;20301;-87
2022/03/01 15:47:25;;;;;;;20.20;12.57;;;14.60;1.00;;;;;;4996113;28;20186;-87
2022/03/01 15:53:13;;;;;;;20.07;11.60;;;15.00;1.00;;;;;;5002821;28;20179;-90
2022/03/01 15:55:41;;;;;;;20.27;12.53;;;14.90;1.00;;;;;;4983876;28;20222;-88
2022/03/01 15:58:11;;;;;;;20.07;11.40;;;14.40;1.00;;;;;;4983137;28;20189;-87
2022/03/01 16:00:37;;;;;;;20.80;12.63;;;14.20;1.00;;;;;;4985078;28;20198;-88
2022/03/01 16:03:06;;;;;;;15.93;11.73;;;13.90;1.00;;;;;;4985064;28;20232;-88
2022/03/01 16:05:33;;;;;;;19.17;11.77;;;13.80;1.00;;;;;;5003879;28;20296;-86
2022/03/01 16:08:02;;;;;;;20.33;12.03;;;14.00;1.00;;;;;;5014127;28;20190;-87
2022/03/01 16:10:28;;;;;;;27.37;13.60;;;14.10;1.00;;;;;;5006919;28;20190;-89
2022/03/01 16:12:57;;;;;;;21.27;13.13;;;13.90;1.00;;;;;;5018493;28;20166;-87
2022/03/01 16:15:28;;;;;;;23.37;12.33;;;13.80;1.00;;;;;;5019056;28;20212;-89
2022/03/01 16:17:59;;;;;;;21.10;12.60;;;13.60;1.00;;;;;;5018241;28;20257;-89
2022/03/01 16:20:33;;;;;;;20.80;13.60;;;13.70;1.00;;;;;;5017333;28;20234;-87
2022/03/01 16:23:03;;;;;;;21.43;13.20;;;13.20;1.00;;;;;;5031162;28;20670;-87
2022/03/01 16:25:34;;;;;;;19.67;13.20;;;13.10;1.00;;;;;;5011073;28;20187;-90
2022/03/01 16:28:02;;;;;;;19.30;13.77;;;13.00;1.00;;;;;;5005841;28;20188;-88
2022/03/01 16:30:33;;;;;;;21.10;13.77;;;13.10;1.00;;;;;;5007645;28;20184;-87
2022/03/01 16:33:00;;;;;;;25.17;13.80;;;13.10;1.00;;;;;;5004900;28;20183;-87
2022/03/01 16:35:28;;;;;;;21.00;14.47;;;12.90;1.00;;;;;;5005583;28;20230;-88
2022/03/01 16:38:04;;;;;;;19.10;14.23;;;13.00;1.00;;;;;;4990153;28;20262;-89
2022/03/01 16:40:39;;;;;;;23.27;13.90;;;12.90;1.00;;;;;;5023484;28;20180;-89
2022/03/01 16:43:05;;;;;;;23.50;14.60;;;12.80;1.00;;;;;;5006662;28;20182;-88
2022/03/01 16:45:31;;;;;;;23.27;14.50;;;12.60;1.00;;;;;;5006013;28;20241;-90
2022/03/01 16:47:59;;;;;;;23.33;15.00;;;12.60;1.00;;;;;;5004141;28;20284;-89
2022/03/01 16:50:28;;;;;;;20.73;13.23;;;12.50;1.00;;;;;;5003794;28;20273;-89
2022/03/01 16:52:57;;;;;;;19.67;13.33;;;12.30;1.00;;;;;;5005786;28;20188;-88
2022/03/01 16:55:46;;;;;;;22.97;14.07;;;12.40;1.00;;;;;;5004468;28;20218;-91
2022/03/01 16:58:18;;;;;;;24.00;13.87;;;12.50;1.00;;;;;;5004617;28;20186;-87
2022/03/01 17:00:44;;;;;;;22.57;13.67;;;12.40;1.00;;;;;;5005194;28;20245;-90
2022/03/01 17:03:11;;;;;;;20.60;14.47;;;12.40;1.00;;;;;;4972377;28;20187;-88
2022/03/01 17:05:40;;;;;;;26.97;14.10;;;12.50;1.00;;;;;;5004657;28;20647;-88
2022/03/01 17:08:09;;;;;;;19.97;13.57;;;12.50;1.00;;;;;;4988613;28;20278;-87
2022/03/01 17:10:41;;;;;;;20.23;13.53;;;12.60;1.00;;;;;;5005194;28;20275;-89
2022/03/01 17:13:38;;;;;;;22.93;13.90;;;12.60;1.00;;;;;;5005785;28;20193;-88
2022/03/01 17:16:08;;;;;;;21.97;13.93;;;12.60;1.00;;;;;;5001842;28;20260;-89
2022/03/01 17:18:36;;;;;;;21.57;14.43;;;12.70;1.00;;;;;;5004171;28;20186;-88
2022/03/01 17:21:03;;;;;;;22.20;14.53;;;12.80;1.00;;;;;;5004935;28;20248;-88
2022/03/01 17:23:39;;;;;;;22.43;14.33;;;13.00;1.00;;;;;;5002572;28;20248;-88
2022/03/01 17:26:09;;;;;;;23.10;15.97;;;13.10;1.00;;;;;;5003938;28;20183;-88
2022/03/01 17:28:35;;;;;;;23.67;15.60;;;13.00;1.00;;;;;;5004406;28;20261;-89
2022/03/01 17:31:25;;;;;;;27.57;15.87;;;13.00;1.00;;;;;;5003424;28;20214;-89
2022/03/01 17:33:54;;;;;;;23.63;15.93;;;13.10;1.00;;;;;;5005025;28;20231;-91
2022/03/01 17:36:21;;;;;;;22.63;15.03;;;13.20;1.00;;;;;;5006019;28;20219;-88
2022/03/01 17:38:52;;;;;;;24.13;15.47;;;13.30;1.00;;;;;;4987297;28;20293;-89
2022/03/01 17:41:21;;;;;;;23.80;15.93;;;13.00;1.00;;;;;;5004450;28;20183;-90
2022/03/01 17:43:57;;;;;;;24.43;17.90;;;13.00;1.00;;;;;;5022210;28;20190;-89
2022/03/01 17:46:27;;;;;;;25.03;17.60;;;12.90;1.00;;;;;;5021157;28;20194;-89
2022/03/01 17:49:01;;;;;;;22.73;17.13;;;12.90;1.00;;;;;;4987381;28;20262;-88
2022/03/01 17:51:30;;;;;;;20.63;16.17;;;12.90;1.00;;;;;;4989379;28;20677;-90
2022/03/01 17:53:58;;;;;;;24.60;15.03;;;13.00;1.00;;;;;;4988482;28;20183;-88
2022/03/01 17:56:26;;;;;;;25.53;15.13;;;13.00;1.00;;;;;;4989985;28;20234;-90
2022/03/01 17:58:54;;;;;;;25.10;16.43;;;13.00;1.00;;;;;;5003920;28;20189;-88
2022/03/01 18:01:20;;;;;;;27.63;17.37;;;12.80;1.00;;;;;;5006110;28;20654;-88
2022/03/01 18:03:48;;;;;;;25.23;16.13;;;12.90;1.00;;;;;;5008611;28;20202;-88
2022/03/01 18:06:26;;;;;;;22.30;15.63;;;12.80;1.00;;;;;;5004690;28;20634;-87
2022/03/01 18:08:59;;;;;;;25.23;17.03;;;12.60;1.00;;;;;;5002854;28;20186;-87
2022/03/01 18:11:49;;;;;;;24.60;17.00;;;12.70;1.00;;;;;;5024091;28;20174;-88
2022/03/01 18:14:18;;;;;;;23.40;16.63;;;12.70;1.00;;;;;;5004061;28;20183;-88
2022/03/01 18:16:47;;;;;;;23.60;16.33;;;12.80;1.00;;;;;;5004623;28;20663;-89
2022/03/01 18:19:19;;;;;;;26.10;16.33;;;12.80;1.00;;;;;;4991525;28;20183;-88
2022/03/01 18:22:06;;;;;;;20.80;15.57;;;12.80;1.00;;;;;;5005693;28;20265;-89
2022/03/01 18:24:36;;;;;;;21.93;16.17;;;12.90;1.00;;;;;;5004746;28;20650;-88
2022/03/01 18:27:05;;;;;;;23.93;17.40;;;12.90;1.00;;;;;;5006401;28;20229;-89
2022/03/01 18:29:32;;;;;;;26.53;17.37;;;12.60;1.00;;;;;;5008238;28;20178;-87
2022/03/01 18:32:10;;;;;;;25.67;17.10;;;12.20;1.00;;;;;;5009043;28;20194;-86
2022/03/01 18:34:43;;;;;;;24.27;16.70;;;12.00;1.00;;;;;;5027410;28;20190;-87
2022/03/01 18:38:00;;;;;;;24.53;15.90;;;11.90;3.90;;;;;;5019871;28;20190;-86
2022/03/01 18:40:26;;;;;;;21.70;14.73;;;11.80;26.50;;;;;;5015081;28;20182;-88
2022/03/01 18:42:55;;;;;;;23.77;15.93;;;11.90;80.20;;;;;;5021140;28;20174;-89
2022/03/01 18:48:44;;;;;;;23.70;16.40;;;11.60;99.90;;;;;;5028409;28;20206;-88
2022/03/01 18:51:14;;;;;;;22.43;15.33;;;11.70;99.90;;;;;;5006490;28;20189;-90
2022/03/01 18:53:41;;;;;;;22.90;15.40;;;11.80;99.90;;;;;;5006325;28;20178;-88
2022/03/01 18:56:11;;;;;;;21.73;15.47;;;11.80;99.90;;;;;;5005454;28;20225;-89
2022/03/01 18:58:46;;;;;;;25.07;15.77;;;11.80;99.90;;;;;;5004390;28;20184;-88